createdAt,value
2022-11-17T00:00:25.664Z,1.20
2022-11-17T00:02:58.695Z,1.40
2022-11-17T00:05:31.679Z,1.20
2022-11-17T00:08:06.520Z,1.50
2022-11-17T00:10:39.434Z,1.30
2022-11-17T00:13:29.604Z,1.67
2022-11-17T00:16:02.586Z,1.42
2022-11-17T00:18:53.165Z,1.88
2022-11-17T00:21:27.291Z,1.05
2022-11-17T00:24:02.078Z,1.80
2022-11-17T00:26:57.923Z,1.38
2022-11-17T00:29:31.639Z,1.20
2022-11-17T00:32:22.404Z,1.50
2022-11-17T00:34:55.365Z,1.15
2022-11-17T00:37:30.288Z,1.50
2022-11-17T00:40:05.225Z,1.40
2022-11-17T00:42:38.171Z,1.70
2022-11-17T00:45:12.438Z,1.40
2022-11-17T00:47:45.391Z,1.35
2022-11-17T00:50:18.471Z,2.05
2022-11-17T00:52:51.466Z,1.55
2022-11-17T00:55:25.874Z,1.50
2022-11-17T00:57:58.894Z,1.30
2022-11-17T01:00:31.838Z,1.40
2022-11-17T01:03:04.800Z,1.38
2022-11-17T01:05:37.747Z,1.13
2022-11-17T01:08:10.796Z,1.17
2022-11-17T01:10:45.161Z,0.95
2022-11-17T01:13:18.938Z,1.00
2022-11-17T01:15:51.918Z,0.98
2022-11-17T01:18:24.881Z,1.42
2022-11-17T01:20:58.308Z,1.10
2022-11-17T01:23:31.577Z,1.20
2022-11-17T01:26:09.221Z,0.90
2022-11-17T01:28:43.391Z,0.95
2022-11-17T01:31:19.293Z,1.13
2022-11-17T01:33:52.734Z,0.90
2022-11-17T01:36:28.450Z,1.27
2022-11-17T01:39:01.427Z,0.90
2022-11-17T01:41:35.953Z,1.00
2022-11-17T01:44:50.435Z,0.70
2022-11-17T01:47:27.208Z,0.75
2022-11-17T01:50:04.893Z,0.85
2022-11-17T01:52:41.182Z,1.02
2022-11-17T01:55:14.563Z,0.90
2022-11-17T01:57:53.617Z,0.80
2022-11-17T02:00:26.916Z,0.68
2022-11-17T02:03:00.505Z,0.80
2022-11-17T02:05:41.561Z,0.73
2022-11-17T02:08:16.042Z,0.88
2022-11-17T02:10:51.943Z,0.70
2022-11-17T02:13:26.577Z,0.70
2022-11-17T02:15:59.521Z,0.93
2022-11-17T02:18:32.831Z,0.70
2022-11-17T02:21:29.029Z,0.65
2022-11-17T02:24:23.620Z,0.80
2022-11-17T02:27:19.794Z,0.73
2022-11-17T02:29:58.625Z,0.73
2022-11-17T02:32:37.844Z,0.80
2022-11-17T02:35:21.593Z,0.70
2022-11-17T02:38:03.747Z,1.00
2022-11-17T02:40:43.195Z,0.77
2022-11-17T02:43:38.995Z,1.02
2022-11-17T02:46:17.591Z,0.88
2022-11-17T02:48:55.839Z,0.77
2022-11-17T02:51:30.559Z,0.90
2022-11-17T02:54:04.027Z,0.93
2022-11-17T02:56:42.402Z,0.93
2022-11-17T02:59:36.707Z,0.90
2022-11-17T03:02:44.780Z,1.00
2022-11-17T03:05:31.387Z,1.00
2022-11-17T03:08:21.376Z,0.88
2022-11-17T03:11:08.795Z,0.90
2022-11-17T03:13:54.111Z,1.55
2022-11-17T03:16:41.222Z,1.10
2022-11-17T03:19:23.389Z,1.23
2022-11-17T03:22:13.446Z,1.17
2022-11-17T03:24:56.633Z,1.30
2022-11-17T03:27:51.605Z,1.20
2022-11-17T03:30:37.729Z,1.08
2022-11-17T03:33:26.531Z,1.20
2022-11-17T03:36:16.773Z,1.20
2022-11-17T03:39:01.532Z,0.98
2022-11-17T03:41:49.413Z,1.15
2022-11-17T03:44:41.667Z,1.05
2022-11-17T03:47:23.323Z,1.15
2022-11-17T03:59:08.417Z,1.17
2022-11-17T04:01:51.686Z,0.90
2022-11-17T04:04:59.959Z,1.15
2022-11-17T04:14:34.020Z,1.10
2022-11-17T04:17:12.233Z,0.90
2022-11-17T04:19:46.954Z,1.05
2022-11-17T04:22:21.580Z,0.93
2022-11-17T04:24:55.361Z,1.13
2022-11-17T04:27:46.597Z,1.10
2022-11-17T04:30:21.625Z,1.00
2022-11-17T04:32:55.209Z,1.15
2022-11-17T04:35:30.989Z,1.10
2022-11-17T04:38:05.145Z,1.02
2022-11-17T04:40:58.863Z,1.10
2022-11-17T04:43:30.879Z,0.90
2022-11-17T04:46:05.927Z,0.93
2022-11-17T04:48:42.022Z,1.05
2022-11-17T04:51:16.030Z,1.02
2022-11-17T04:53:49.995Z,1.02
2022-11-17T04:56:24.909Z,1.27
2022-11-17T04:58:58.741Z,1.15
2022-11-17T05:01:34.253Z,1.27
2022-11-17T05:04:09.722Z,1.10
2022-11-17T05:07:12.819Z,1.20
2022-11-17T05:09:46.456Z,1.10
2022-11-17T05:12:47.881Z,1.08
2022-11-17T05:15:43.503Z,1.13
2022-11-17T05:18:16.903Z,1.05
2022-11-17T05:20:49.828Z,1.20
2022-11-17T05:23:40.404Z,1.23
2022-11-17T05:26:13.410Z,1.00
2022-11-17T05:28:46.944Z,1.00
2022-11-17T05:31:19.943Z,1.05
2022-11-17T05:33:55.492Z,0.98
2022-11-17T05:36:30.420Z,1.10
2022-11-17T05:39:04.096Z,1.30
2022-11-17T05:41:38.255Z,1.25
2022-11-17T05:44:11.193Z,1.20
2022-11-17T05:46:44.398Z,1.15
2022-11-17T05:49:18.761Z,1.08
2022-11-17T05:51:53.151Z,0.93
2022-11-17T05:54:27.069Z,1.17
2022-11-17T05:57:04.722Z,1.20
2022-11-17T05:59:43.996Z,1.00
2022-11-17T06:02:21.662Z,0.80
2022-11-17T06:04:56.072Z,1.10
2022-11-17T06:07:29.581Z,1.23
2022-11-17T06:10:02.880Z,0.95
2022-11-17T06:12:35.971Z,0.95
2022-11-17T06:15:09.939Z,0.90
2022-11-17T06:17:48.166Z,0.80
2022-11-17T06:20:28.374Z,0.63
2022-11-17T06:23:04.447Z,0.90
2022-11-17T06:25:38.563Z,0.80
2022-11-17T06:28:15.153Z,0.77
2022-11-17T06:30:49.129Z,0.80
2022-11-17T06:33:22.741Z,0.75
2022-11-17T06:35:58.125Z,1.05
2022-11-17T06:38:33.644Z,0.70
2022-11-17T06:41:11.712Z,0.73
2022-11-17T06:43:45.026Z,0.88
2022-11-17T06:46:19.162Z,0.77
2022-11-17T06:48:55.277Z,0.80
2022-11-17T06:51:29.827Z,0.80
2022-11-17T06:54:03.934Z,0.80
2022-11-17T06:56:36.903Z,0.77
2022-11-17T06:59:09.916Z,0.90
2022-11-17T07:01:43.591Z,1.00
2022-11-17T07:04:16.815Z,0.90
2022-11-17T07:06:51.190Z,0.90
2022-11-17T07:09:25.411Z,1.10
2022-11-17T07:11:58.695Z,0.90
2022-11-17T07:14:32.099Z,0.98
2022-11-17T07:17:05.126Z,1.05
2022-11-17T07:19:38.038Z,0.85
2022-11-17T07:22:12.486Z,0.93
2022-11-17T07:24:45.459Z,1.00
2022-11-17T07:27:18.471Z,1.00
2022-11-17T07:29:51.579Z,1.27
2022-11-17T07:32:24.939Z,0.98
2022-11-17T07:34:58.437Z,1.10
2022-11-17T07:37:34.545Z,1.23
2022-11-17T07:40:08.961Z,1.10
2022-11-17T07:42:41.969Z,1.02
2022-11-17T07:45:14.991Z,1.27
2022-11-17T07:47:54.774Z,1.02
2022-11-17T07:50:28.449Z,1.00
2022-11-17T07:53:02.986Z,0.90
2022-11-17T07:55:36.411Z,1.20
2022-11-17T07:58:09.370Z,1.02
2022-11-17T08:00:42.396Z,0.98
2022-11-17T08:03:15.934Z,1.30
2022-11-17T08:05:49.089Z,1.20
2022-11-17T08:08:23.708Z,1.40
2022-11-17T08:10:56.688Z,0.95
2022-11-17T08:13:29.651Z,1.27
2022-11-17T08:16:03.625Z,0.88
2022-11-17T08:18:37.731Z,0.90
2022-11-17T08:21:13.989Z,0.70
2022-11-17T08:23:52.188Z,0.70
2022-11-17T08:26:25.612Z,0.70
2022-11-17T08:28:59.129Z,0.73
2022-11-17T08:31:32.286Z,0.73
2022-11-17T08:34:05.768Z,0.82
2022-11-17T08:36:38.968Z,0.98
2022-11-17T08:39:13.530Z,0.80
2022-11-17T08:41:46.488Z,0.73
2022-11-17T08:44:19.760Z,0.77
2022-11-17T08:46:52.736Z,0.68
2022-11-17T08:49:25.771Z,0.50
2022-11-17T08:51:58.756Z,0.70
2022-11-17T08:54:33.797Z,0.80
2022-11-17T08:57:06.756Z,0.60
2022-11-17T08:59:39.980Z,0.70
2022-11-17T09:02:13.398Z,0.55
2022-11-17T09:04:47.849Z,0.60
2022-11-17T09:07:20.847Z,0.80
2022-11-17T09:09:55.330Z,0.70
2022-11-17T09:12:28.334Z,0.75
2022-11-17T09:15:01.343Z,0.80
2022-11-17T09:17:34.591Z,0.60
2022-11-17T09:20:09.096Z,0.40
2022-11-17T09:22:42.028Z,0.50
2022-11-17T09:25:17.726Z,0.50
2022-11-17T09:27:51.136Z,0.50
2022-11-17T09:30:24.615Z,0.77
2022-11-17T09:32:59.207Z,0.70
2022-11-17T09:35:32.386Z,0.50
2022-11-17T09:38:05.672Z,0.50
2022-11-17T09:40:42.775Z,0.45
2022-11-17T09:43:27.010Z,0.52
2022-11-17T09:46:10.217Z,0.70
2022-11-17T09:48:49.757Z,0.70
2022-11-17T09:51:26.717Z,0.77
2022-11-17T09:54:05.603Z,0.70
2022-11-17T09:56:41.603Z,0.47
2022-11-17T09:59:19.326Z,0.80
2022-11-17T10:01:52.617Z,0.80
2022-11-17T10:04:30.649Z,0.57
2022-11-17T10:07:05.078Z,0.55
2022-11-17T10:09:42.775Z,0.52
2022-11-17T10:12:20.923Z,0.75
2022-11-17T10:14:55.208Z,0.60
2022-11-17T10:17:28.280Z,0.80
2022-11-17T10:20:01.296Z,0.80
2022-11-17T10:22:36.838Z,0.85
2022-11-17T10:25:22.999Z,0.60
2022-11-17T10:27:57.405Z,0.50
2022-11-17T10:30:30.368Z,0.63
2022-11-17T10:33:05.157Z,0.57
2022-11-17T10:35:38.119Z,0.80
2022-11-17T10:38:20.426Z,0.43
2022-11-17T10:40:54.760Z,0.50
2022-11-17T10:43:31.826Z,0.47
2022-11-17T10:46:07.795Z,1.10
2022-11-17T10:48:55.194Z,0.80
2022-11-17T10:51:35.572Z,0.70
2022-11-17T10:54:22.631Z,0.70
2022-11-17T10:57:00.012Z,0.70
2022-11-17T10:59:43.500Z,0.63
2022-11-17T11:02:28.889Z,0.77
2022-11-17T11:05:09.719Z,0.70
2022-11-17T11:07:42.951Z,1.20
2022-11-17T11:10:19.148Z,0.68
2022-11-17T11:12:56.868Z,0.70
2022-11-17T11:15:34.230Z,0.82
2022-11-17T11:18:13.344Z,0.80
2022-11-17T11:20:54.424Z,0.57
2022-11-17T11:23:40.694Z,0.40
2022-11-17T11:26:24.820Z,0.60
2022-11-17T11:29:06.344Z,0.60
2022-11-17T11:31:51.457Z,0.50
2022-11-17T11:34:43.350Z,0.45
2022-11-17T11:40:00.490Z,0.50
2022-11-17T11:42:48.830Z,0.50
2022-11-17T11:45:37.897Z,0.70
2022-11-17T11:48:21.222Z,0.50
2022-11-17T11:50:57.687Z,0.52
2022-11-17T11:53:39.349Z,0.60
2022-11-17T11:56:19.086Z,0.75
2022-11-17T11:58:58.595Z,0.68
2022-11-17T12:01:38.403Z,0.55
2022-11-17T12:04:24.934Z,0.50
2022-11-17T12:07:06.148Z,0.60
2022-11-17T12:10:01.281Z,0.60
2022-11-17T12:12:37.677Z,0.88
2022-11-17T12:15:13.891Z,0.47
2022-11-17T12:18:00.866Z,0.63
2022-11-17T12:20:56.271Z,0.60
2022-11-17T12:23:50.548Z,0.47
2022-11-17T12:26:26.636Z,0.57
2022-11-17T12:29:27.022Z,0.77
2022-11-17T12:32:02.422Z,0.50
2022-11-17T12:34:37.281Z,0.50
2022-11-17T12:37:29.978Z,0.80
2022-11-17T12:40:08.004Z,0.80
2022-11-17T12:43:21.875Z,0.60
2022-11-17T12:46:05.256Z,0.63
2022-11-17T12:48:40.486Z,0.75
2022-11-17T12:51:26.069Z,0.43
2022-11-17T12:54:14.886Z,0.52
2022-11-17T12:57:08.107Z,0.77
2022-11-17T13:00:07.707Z,0.70
2022-11-17T13:02:59.688Z,0.57
2022-11-17T13:08:21.949Z,0.90
2022-11-17T13:11:04.912Z,0.60
2022-11-17T13:13:41.366Z,0.60
2022-11-17T13:16:20.350Z,0.50
2022-11-17T13:18:53.477Z,0.50
2022-11-17T13:21:31.143Z,0.73
2022-11-17T13:24:04.708Z,0.55
2022-11-17T13:26:39.378Z,0.50
2022-11-17T13:29:13.757Z,0.30
2022-11-17T13:31:47.267Z,0.88
2022-11-17T13:34:22.209Z,0.68
2022-11-17T13:36:58.688Z,0.50
2022-11-17T13:39:32.102Z,0.43
2022-11-17T13:42:06.983Z,0.50
2022-11-17T13:44:40.005Z,0.45
2022-11-17T13:47:20.899Z,0.60
2022-11-17T13:49:54.037Z,0.43
2022-11-17T13:52:40.489Z,0.50
2022-11-17T13:55:19.949Z,0.63
2022-11-17T13:58:03.650Z,0.47
2022-11-17T14:00:37.173Z,0.60
2022-11-17T14:03:38.847Z,0.50
2022-11-17T14:06:13.671Z,0.50
2022-11-17T14:09:05.688Z,0.50
2022-11-17T14:11:42.232Z,0.38
2022-11-17T14:14:21.398Z,0.50
2022-11-17T14:16:54.361Z,0.50
2022-11-17T14:19:34.310Z,0.63
2022-11-17T14:22:30.921Z,0.95
2022-11-17T14:25:06.919Z,0.68
2022-11-17T14:27:43.384Z,0.82
2022-11-17T14:30:18.163Z,0.50
2022-11-17T14:32:51.189Z,0.43
2022-11-17T14:35:24.118Z,0.60
2022-11-17T14:37:57.213Z,1.20
2022-11-17T14:40:30.131Z,0.80
2022-11-17T14:43:03.161Z,0.55
2022-11-17T14:45:37.803Z,0.50
2022-11-17T14:48:17.607Z,0.50
2022-11-17T14:50:57.509Z,0.40
2022-11-17T14:53:30.324Z,0.80
2022-11-17T14:56:07.619Z,0.35
2022-11-17T14:58:40.826Z,0.40
2022-11-17T15:01:18.474Z,0.43
2022-11-17T15:03:53.928Z,0.40
2022-11-17T15:06:27.668Z,0.80
2022-11-17T15:09:01.959Z,0.60
2022-11-17T15:11:39.295Z,0.70
2022-11-17T15:14:12.805Z,0.40
2022-11-17T15:16:47.107Z,0.75
2022-11-17T15:19:20.149Z,0.60
2022-11-17T15:21:52.974Z,0.70
2022-11-17T15:24:25.881Z,0.80
2022-11-17T15:26:58.991Z,0.60
2022-11-17T15:29:31.889Z,0.60
2022-11-17T15:32:07.729Z,0.40
2022-11-17T15:34:40.666Z,0.43
2022-11-17T15:37:13.611Z,0.57
2022-11-17T15:39:46.423Z,0.40
2022-11-17T15:42:19.368Z,0.40
2022-11-17T15:44:52.188Z,0.35
2022-11-17T15:47:26.370Z,0.55
2022-11-17T15:49:59.428Z,0.70
2022-11-17T15:52:56.543Z,0.40
2022-11-17T15:55:25.753Z,0.30
2022-11-17T15:57:58.640Z,0.38
2022-11-17T16:00:33.924Z,0.60
2022-11-17T16:03:08.357Z,0.52
2022-11-17T16:05:41.182Z,0.50
2022-11-17T16:08:14.108Z,0.63
2022-11-17T16:10:46.920Z,0.50
2022-11-17T16:13:19.791Z,0.47
2022-11-17T16:15:53.318Z,0.68
2022-11-17T16:18:27.749Z,0.60
2022-11-17T16:21:04.815Z,0.70
2022-11-17T16:23:41.767Z,0.57
2022-11-17T16:26:16.181Z,0.50
2022-11-17T16:28:49.135Z,0.52
2022-11-17T16:31:24.797Z,0.47
2022-11-17T16:34:00.574Z,0.60
2022-11-17T16:36:36.818Z,0.50
2022-11-17T16:39:12.416Z,0.40
2022-11-17T16:41:46.519Z,0.52
2022-11-17T16:44:20.719Z,0.60
2022-11-17T16:46:53.869Z,0.90
2022-11-17T16:49:30.065Z,0.80
2022-11-17T16:52:02.928Z,0.85
2022-11-17T16:54:35.887Z,1.10
2022-11-17T16:57:08.970Z,1.10
2022-11-17T16:59:41.785Z,1.02
2022-11-17T17:02:14.759Z,1.23
2022-11-17T17:04:48.971Z,1.42
2022-11-17T17:07:21.908Z,1.63
2022-11-17T17:09:54.853Z,1.60
2022-11-17T17:12:28.852Z,1.42
2022-11-17T17:15:01.746Z,1.38
2022-11-17T17:17:34.646Z,1.45
2022-11-17T17:20:11.103Z,1.92
2022-11-17T17:22:43.928Z,1.73
2022-11-17T17:25:16.807Z,2.30
2022-11-17T17:27:49.756Z,1.30
2022-11-17T17:30:22.729Z,1.40
2022-11-17T17:32:55.584Z,1.08
2022-11-17T17:35:30.140Z,1.40
2022-11-17T17:38:02.972Z,1.10
2022-11-17T17:40:35.720Z,1.10
2022-11-17T17:43:08.604Z,1.00
2022-11-17T17:45:41.777Z,0.93
2022-11-17T17:48:14.711Z,0.98
2022-11-17T17:50:49.256Z,0.70
2022-11-17T17:53:22.102Z,0.80
2022-11-17T17:55:59.175Z,0.82
2022-11-17T17:58:40.179Z,1.35
2022-11-17T18:01:14.995Z,0.90
2022-11-17T18:03:49.898Z,1.15
2022-11-17T18:06:24.415Z,1.00
2022-11-17T18:08:58.724Z,0.82
2022-11-17T18:11:31.590Z,1.00
2022-11-17T18:14:05.661Z,1.10
2022-11-17T18:16:38.945Z,1.60
2022-11-17T18:19:16.058Z,1.35
2022-11-17T18:21:50.755Z,1.10
2022-11-17T18:24:23.924Z,1.10
2022-11-17T18:26:56.760Z,1.35
2022-11-17T18:29:29.901Z,1.30
2022-11-17T18:32:02.732Z,1.15
2022-11-17T18:34:35.883Z,1.17
2022-11-17T18:37:10.118Z,1.30
2022-11-17T18:39:43.363Z,1.38
2022-11-17T18:42:16.210Z,1.25
2022-11-17T18:44:50.903Z,1.08
2022-11-17T18:47:24.157Z,1.20
2022-11-17T18:49:57.053Z,1.00
2022-11-17T18:52:31.629Z,1.40
2022-11-17T18:55:04.862Z,0.80
2022-11-17T18:57:40.770Z,1.10
2022-11-17T19:00:18.722Z,1.10
2022-11-17T19:02:51.514Z,1.17
2022-11-17T19:05:25.026Z,2.00
2022-11-17T19:07:59.215Z,1.50
2022-11-17T19:10:32.301Z,0.98
2022-11-17T19:13:05.574Z,1.00
2022-11-17T19:15:38.791Z,2.13
2022-11-17T19:18:12.171Z,2.92
2022-11-17T19:20:46.097Z,2.60
2022-11-17T19:23:20.782Z,1.40
2022-11-17T19:25:53.999Z,1.48
2022-11-17T19:28:27.402Z,0.82
2022-11-17T19:31:04.629Z,0.80
2022-11-17T19:33:39.612Z,0.90
2022-11-17T19:36:15.156Z,0.80
2022-11-17T19:38:51.586Z,0.63
2022-11-17T19:41:27.123Z,0.47
2022-11-17T19:44:04.062Z,0.52
2022-11-17T19:46:37.752Z,0.30
2022-11-17T19:49:13.037Z,0.50
2022-11-17T19:51:46.313Z,0.30
2022-11-17T19:54:21.073Z,0.30
2022-11-17T19:56:54.490Z,0.20
2022-11-17T19:59:27.383Z,0.47
2022-11-17T20:02:00.505Z,0.40
2022-11-17T20:04:33.676Z,0.50
2022-11-17T20:07:06.972Z,0.30
2022-11-17T20:09:41.805Z,0.50
2022-11-17T20:12:15.041Z,0.63
2022-11-17T20:14:48.879Z,0.28
2022-11-17T20:17:22.482Z,0.30
2022-11-17T20:19:55.697Z,0.57
2022-11-17T20:22:28.608Z,0.20
2022-11-17T20:25:05.539Z,0.57
2022-11-17T20:27:39.110Z,0.28
2022-11-17T20:30:15.399Z,0.50
2022-11-17T20:32:48.661Z,0.50
2022-11-17T20:35:21.658Z,0.88
2022-11-17T20:37:54.624Z,0.65
2022-11-17T20:40:29.179Z,0.60
2022-11-17T20:43:02.781Z,0.70
2022-11-17T20:45:35.688Z,0.65
2022-11-17T20:48:08.650Z,0.60
2022-11-17T20:50:41.946Z,0.57
2022-11-17T20:53:14.965Z,0.50
2022-11-17T20:55:49.437Z,0.55
2022-11-17T20:58:22.375Z,0.50
2022-11-17T21:00:56.133Z,0.30
2022-11-17T21:03:29.536Z,0.20
2022-11-17T21:06:04.194Z,0.38
2022-11-17T21:08:38.825Z,0.55
2022-11-17T21:11:36.211Z,0.45
2022-11-17T21:14:12.034Z,0.57
2022-11-17T21:16:46.703Z,0.30
2022-11-17T21:19:20.762Z,0.40
2022-11-17T21:21:54.680Z,0.20
2022-11-17T21:24:28.185Z,0.40
2022-11-17T21:27:02.745Z,0.30
2022-11-17T21:29:35.721Z,0.40
2022-11-17T21:32:09.033Z,0.45
2022-11-17T21:34:47.043Z,0.13
2022-11-17T21:37:22.870Z,0.30
2022-11-17T21:39:56.124Z,0.40
2022-11-17T21:42:38.565Z,0.22
2022-11-17T21:45:12.631Z,0.40
2022-11-17T21:47:47.133Z,0.32
2022-11-17T21:50:20.841Z,0.35
2022-11-17T21:52:54.203Z,0.22
2022-11-17T21:55:27.553Z,0.20
2022-11-17T21:58:02.676Z,0.30
2022-11-17T22:00:37.176Z,0.50
2022-11-17T22:03:10.442Z,0.17
2022-11-17T22:05:43.952Z,1.00
2022-11-17T22:08:16.995Z,1.30
2022-11-17T22:10:50.049Z,1.13
2022-11-17T22:13:25.170Z,0.80
2022-11-17T22:15:58.075Z,0.40
2022-11-17T22:18:31.294Z,0.28
2022-11-17T22:21:04.324Z,0.38
2022-11-17T22:23:37.896Z,0.30
2022-11-17T22:26:12.035Z,0.17
2022-11-17T22:28:46.175Z,0.30
2022-11-17T22:31:19.476Z,0.30
2022-11-17T22:33:52.898Z,0.30
2022-11-17T22:36:25.828Z,0.10
2022-11-17T22:39:07.572Z,0.20
2022-11-17T22:41:45.123Z,0.35
2022-11-17T22:44:19.792Z,0.20
2022-11-17T22:46:56.466Z,0.20
2022-11-17T22:49:29.618Z,0.35
2022-11-17T22:52:07.604Z,0.30
2022-11-17T22:54:40.624Z,0.45
2022-11-17T22:57:13.719Z,0.43
2022-11-17T22:59:48.283Z,0.70
2022-11-17T23:02:23.934Z,0.63
2022-11-17T23:04:57.565Z,0.88
2022-11-17T23:07:36.042Z,0.70
2022-11-17T23:10:15.242Z,0.40
2022-11-17T23:13:20.110Z,0.50
2022-11-17T23:15:55.372Z,0.40
2022-11-17T23:18:28.941Z,0.95
2022-11-17T23:21:05.335Z,1.00
2022-11-17T23:23:41.935Z,0.63
2022-11-17T23:26:18.575Z,0.60
2022-11-17T23:28:51.655Z,0.70
2022-11-17T23:31:28.135Z,0.50
2022-11-17T23:34:01.526Z,0.30
2022-11-17T23:36:35.096Z,0.82
2022-11-17T23:39:23.795Z,0.60
2022-11-17T23:41:57.200Z,0.30
2022-11-17T23:44:30.785Z,0.60
2022-11-17T23:47:05.209Z,0.30
2022-11-17T23:49:41.224Z,0.60
2022-11-17T23:52:14.115Z,0.30
2022-11-17T23:54:47.788Z,0.40
2022-11-17T23:57:21.379Z,0.45
2022-11-17T23:59:54.349Z,0.30
